createdAt,value
2023-04-23T00:00:38.894Z,13.39
2023-04-23T00:01:38.976Z,13.63
2023-04-23T00:02:38.962Z,13.42
2023-04-23T00:03:39.177Z,13.12
2023-04-23T00:04:39.171Z,12.29
2023-04-23T00:05:38.937Z,10.91
2023-04-23T00:06:38.927Z,10.22
2023-04-23T00:07:38.929Z,10.65
2023-04-23T00:08:38.947Z,11.58
2023-04-23T00:09:38.959Z,12.46
2023-04-23T00:10:38.972Z,13.81
2023-04-23T00:11:38.966Z,14.84
2023-04-23T00:12:38.966Z,15.02
2023-04-23T00:13:38.985Z,14.93
2023-04-23T00:14:39.183Z,15.03
2023-04-23T00:15:38.994Z,14.76
2023-04-23T00:16:39.117Z,15.06
2023-04-23T00:17:39.080Z,14.92
2023-04-23T00:18:39.030Z,15.29
2023-04-23T00:19:39.033Z,14.79
2023-04-23T00:20:39.049Z,15.93
2023-04-23T00:21:39.081Z,15.93
2023-04-23T00:22:39.104Z,16.43
2023-04-23T00:23:39.184Z,15.98
2023-04-23T00:24:39.345Z,15.73
2023-04-23T00:25:39.109Z,15.01
2023-04-23T00:26:39.107Z,15.09
2023-04-23T00:27:39.111Z,14.56
2023-04-23T00:28:39.124Z,14.37
2023-04-23T00:29:39.121Z,13.16
2023-04-23T00:30:39.148Z,13.18
2023-04-23T00:31:39.188Z,12.91
2023-04-23T00:32:39.216Z,12.76
2023-04-23T00:33:39.174Z,12.76
2023-04-23T00:34:39.515Z,12.20
2023-04-23T00:35:39.201Z,11.77
2023-04-23T00:36:39.211Z,11.24
2023-04-23T00:37:39.222Z,10.92
2023-04-23T00:38:39.237Z,10.96
2023-04-23T00:39:39.265Z,11.05
2023-04-23T00:40:39.264Z,11.06
2023-04-23T00:41:39.273Z,11.64
2023-04-23T00:42:39.312Z,11.55
2023-04-23T00:43:39.309Z,12.41
2023-04-23T00:44:39.430Z,12.81
2023-04-23T00:45:39.503Z,13.06
2023-04-23T00:46:39.336Z,13.22
2023-04-23T00:47:39.412Z,13.60
2023-04-23T00:48:39.356Z,14.27
2023-04-23T00:49:39.377Z,14.86
2023-04-23T00:50:39.374Z,16.28
2023-04-23T00:51:39.401Z,15.96
2023-04-23T00:52:39.438Z,16.07
2023-04-23T00:53:39.428Z,15.81
2023-04-23T00:54:39.554Z,15.52
2023-04-23T00:55:39.453Z,15.57
2023-04-23T00:56:39.531Z,15.20
2023-04-23T00:57:39.513Z,14.41
2023-04-23T00:58:39.527Z,13.69
2023-04-23T00:59:39.536Z,13.99
2023-04-23T01:00:39.547Z,13.66
2023-04-23T01:01:39.580Z,13.87
2023-04-23T01:02:39.771Z,13.67
2023-04-23T01:03:39.693Z,13.46
2023-04-23T01:04:39.675Z,13.52
2023-04-23T01:05:39.606Z,13.12
2023-04-23T01:06:39.630Z,13.03
2023-04-23T01:07:39.722Z,12.70
2023-04-23T01:08:39.660Z,12.56
2023-04-23T01:09:39.677Z,12.75
2023-04-23T01:10:39.684Z,13.23
2023-04-23T01:11:39.700Z,13.08
2023-04-23T01:12:39.737Z,12.71
2023-04-23T01:13:39.733Z,11.90
2023-04-23T01:14:39.878Z,11.15
2023-04-23T01:15:39.751Z,10.88
2023-04-23T01:16:39.811Z,10.91
2023-04-23T01:17:39.812Z,10.74
2023-04-23T01:18:39.818Z,9.89
2023-04-23T01:19:39.822Z,9.46
2023-04-23T01:20:39.842Z,9.36
2023-04-23T01:21:39.876Z,9.14
2023-04-23T01:22:39.902Z,8.81
2023-04-23T01:23:39.903Z,8.52
2023-04-23T01:24:40.126Z,8.29
2023-04-23T01:25:39.963Z,7.91
2023-04-23T01:26:39.986Z,7.64
2023-04-23T01:27:40.003Z,7.71
2023-04-23T01:28:40.052Z,8.09
2023-04-23T01:29:40.138Z,8.87
2023-04-23T01:30:40.116Z,10.46
2023-04-23T01:31:40.081Z,11.64
2023-04-23T01:32:40.156Z,13.38
2023-04-23T01:33:40.141Z,13.88
2023-04-23T01:34:40.341Z,15.15
2023-04-23T01:35:40.172Z,15.85
2023-04-23T01:36:40.237Z,16.43
2023-04-23T01:37:40.226Z,16.08
2023-04-23T01:38:40.247Z,16.55
2023-04-23T01:39:40.278Z,16.98
2023-04-23T01:40:40.292Z,16.86
2023-04-23T01:41:40.331Z,16.84
2023-04-23T01:42:40.358Z,16.21
2023-04-23T01:43:40.358Z,16.42
2023-04-23T01:44:40.469Z,16.11
2023-04-23T01:45:40.403Z,16.05
2023-04-23T01:46:40.476Z,16.29
2023-04-23T01:47:40.471Z,15.42
2023-04-23T01:48:40.482Z,14.98
2023-04-23T01:49:40.489Z,17.62
2023-04-23T01:50:40.495Z,22.35
2023-04-23T01:51:40.506Z,25.48
2023-04-23T01:52:40.649Z,24.92
2023-04-23T01:53:40.575Z,22.46
2023-04-23T01:54:40.929Z,19.72
2023-04-23T01:55:40.617Z,18.69
2023-04-23T01:56:40.631Z,18.04
2023-04-23T01:57:40.673Z,16.09
2023-04-23T01:58:40.667Z,15.75
2023-04-23T01:59:40.714Z,15.50
2023-04-23T02:00:40.770Z,15.58
2023-04-23T02:01:40.791Z,14.98
2023-04-23T02:02:40.967Z,15.19
2023-04-23T02:03:40.945Z,15.66
2023-04-23T02:04:41.176Z,15.91
2023-04-23T02:05:40.853Z,16.56
2023-04-23T02:06:40.854Z,17.06
2023-04-23T02:07:40.898Z,17.64
2023-04-23T02:08:40.924Z,18.07
2023-04-23T02:09:40.955Z,18.50
2023-04-23T02:10:40.949Z,17.93
2023-04-23T02:11:40.987Z,17.79
2023-04-23T02:12:41.000Z,16.88
2023-04-23T02:13:41.032Z,17.81
2023-04-23T02:14:41.410Z,16.96
2023-04-23T02:15:41.072Z,17.19
2023-04-23T02:16:41.095Z,17.73
2023-04-23T02:17:41.149Z,18.14
2023-04-23T02:18:41.132Z,18.61
2023-04-23T02:19:41.160Z,18.56
2023-04-23T02:20:41.164Z,18.74
2023-04-23T02:21:41.185Z,18.81
2023-04-23T02:22:41.225Z,18.78
2023-04-23T02:23:41.261Z,18.93
2023-04-23T02:24:41.455Z,18.40
2023-04-23T02:25:41.279Z,17.64
2023-04-23T02:26:41.345Z,18.24
2023-04-23T02:27:41.358Z,17.93
2023-04-23T02:28:41.374Z,18.03
2023-04-23T02:29:41.384Z,17.97
2023-04-23T02:30:41.401Z,16.88
2023-04-23T02:31:41.485Z,18.22
2023-04-23T02:32:41.476Z,17.98
2023-04-23T02:33:41.465Z,18.66
2023-04-23T02:34:41.833Z,18.61
2023-04-23T02:35:41.519Z,19.67
2023-04-23T02:36:41.646Z,21.74
2023-04-23T02:37:41.646Z,22.76
2023-04-23T02:38:41.591Z,22.15
2023-04-23T02:39:41.589Z,22.26
2023-04-23T02:40:41.618Z,21.69
2023-04-23T02:41:41.647Z,21.04
2023-04-23T02:42:43.834Z,20.34
2023-04-23T02:43:41.707Z,20.18
2023-04-23T02:44:41.968Z,19.60
2023-04-23T02:45:41.738Z,19.27
2023-04-23T02:46:41.774Z,18.46
2023-04-23T02:47:41.795Z,17.71
2023-04-23T02:48:41.838Z,17.25
2023-04-23T02:49:41.816Z,18.50
2023-04-23T02:50:41.829Z,18.78
2023-04-23T02:51:41.862Z,19.35
2023-04-23T02:52:41.898Z,19.11
2023-04-23T02:53:41.914Z,18.51
2023-04-23T02:54:42.277Z,18.26
2023-04-23T02:55:41.956Z,17.76
2023-04-23T02:56:41.985Z,17.20
2023-04-23T02:57:42.008Z,16.73
2023-04-23T02:58:42.289Z,15.99
2023-04-23T02:59:42.047Z,16.60
2023-04-23T03:00:42.175Z,18.00
2023-04-23T03:01:42.092Z,19.82
2023-04-23T03:02:42.229Z,22.56
2023-04-23T03:03:42.263Z,24.95
2023-04-23T03:04:42.293Z,26.89
2023-04-23T03:05:42.164Z,30.03
2023-04-23T03:06:42.166Z,29.76
2023-04-23T03:07:42.199Z,25.05
2023-04-23T03:08:42.249Z,21.30
2023-04-23T03:09:42.261Z,17.99
2023-04-23T03:10:42.270Z,16.11
2023-04-23T03:11:42.279Z,15.58
2023-04-23T03:12:42.304Z,15.45
2023-04-23T03:13:42.331Z,15.61
2023-04-23T03:14:42.682Z,15.86
2023-04-23T03:15:42.409Z,15.90
2023-04-23T03:16:42.447Z,16.91
2023-04-23T03:17:42.449Z,17.75
2023-04-23T03:18:42.470Z,18.01
2023-04-23T03:19:42.489Z,16.95
2023-04-23T03:20:42.613Z,17.46
2023-04-23T03:21:42.525Z,17.55
2023-04-23T03:22:42.574Z,17.82
2023-04-23T03:23:42.567Z,18.67
2023-04-23T03:24:42.760Z,18.50
2023-04-23T03:25:42.618Z,19.85
2023-04-23T03:26:42.632Z,19.58
2023-04-23T03:27:42.672Z,19.65
2023-04-23T03:28:42.689Z,21.27
2023-04-23T03:29:42.705Z,21.78
2023-04-23T03:30:42.753Z,21.61
2023-04-23T03:31:42.742Z,20.88
2023-04-23T03:32:42.755Z,20.73
2023-04-23T03:33:42.775Z,20.91
2023-04-23T03:34:43.021Z,21.38
2023-04-23T03:35:42.824Z,21.46
2023-04-23T03:36:42.851Z,20.87
2023-04-23T03:37:42.918Z,22.39
2023-04-23T03:38:42.908Z,22.93
2023-04-23T03:39:42.927Z,22.35
2023-04-23T03:40:42.936Z,21.63
2023-04-23T03:41:42.981Z,21.39
2023-04-23T03:42:43.000Z,21.07
2023-04-23T03:43:43.118Z,20.54
2023-04-23T03:44:43.197Z,20.75
2023-04-23T03:45:43.067Z,21.40
2023-04-23T03:46:43.081Z,20.70
2023-04-23T03:47:43.089Z,21.97
2023-04-23T03:48:43.078Z,21.47
2023-04-23T03:49:43.096Z,21.74
2023-04-23T03:50:43.092Z,21.85
2023-04-23T03:51:43.093Z,22.20
2023-04-23T03:52:43.105Z,21.72
2023-04-23T03:53:43.128Z,21.34
2023-04-23T03:54:43.335Z,21.17
2023-04-23T03:55:43.118Z,20.88
2023-04-23T03:56:43.133Z,20.42
2023-04-23T03:57:43.142Z,21.10
2023-04-23T03:58:43.157Z,21.94
2023-04-23T03:59:43.155Z,22.39
2023-04-23T04:00:43.159Z,22.61
2023-04-23T04:01:43.161Z,22.69
2023-04-23T04:02:43.267Z,21.48
2023-04-23T04:03:43.378Z,19.89
2023-04-23T04:04:43.473Z,19.89
2023-04-23T04:05:43.332Z,19.04
2023-04-23T04:06:43.190Z,18.59
2023-04-23T04:07:43.219Z,18.04
2023-04-23T04:08:43.208Z,18.20
2023-04-23T04:09:43.237Z,17.11
2023-04-23T04:10:43.216Z,17.23
2023-04-23T04:11:43.260Z,17.21
2023-04-23T04:12:43.243Z,17.05
2023-04-23T04:13:43.253Z,17.06
2023-04-23T04:14:43.581Z,17.45
2023-04-23T04:15:43.302Z,17.52
2023-04-23T04:16:43.303Z,18.33
2023-04-23T04:17:43.332Z,18.24
2023-04-23T04:18:43.321Z,18.36
2023-04-23T04:19:43.381Z,19.03
2023-04-23T04:20:43.393Z,19.03
2023-04-23T04:21:43.402Z,19.35
2023-04-23T04:22:43.439Z,19.52
2023-04-23T04:23:43.471Z,19.89
2023-04-23T04:24:43.744Z,20.49
2023-04-23T04:25:43.512Z,20.60
2023-04-23T04:26:43.538Z,19.89
2023-04-23T04:27:43.656Z,20.61
2023-04-23T04:28:43.609Z,19.73
2023-04-23T04:29:43.657Z,20.38
2023-04-23T04:30:43.648Z,20.65
2023-04-23T04:31:43.711Z,20.66
2023-04-23T04:32:43.715Z,21.05
2023-04-23T04:33:43.711Z,22.20
2023-04-23T04:34:43.945Z,21.91
2023-04-23T04:35:43.761Z,22.05
2023-04-23T04:36:43.793Z,23.58
2023-04-23T04:37:43.871Z,23.53
2023-04-23T04:38:43.846Z,22.94
2023-04-23T04:39:43.872Z,24.13
2023-04-23T04:40:43.887Z,24.05
2023-04-23T04:41:43.917Z,22.70
2023-04-23T04:42:43.924Z,22.13
2023-04-23T04:43:43.939Z,21.52
2023-04-23T04:44:44.041Z,21.59
2023-04-23T04:45:43.986Z,21.94
2023-04-23T04:46:44.105Z,20.70
2023-04-23T04:47:44.073Z,20.63
2023-04-23T04:48:44.074Z,21.02
2023-04-23T04:49:44.188Z,20.94
2023-04-23T04:50:44.122Z,20.01
2023-04-23T04:51:44.145Z,19.32
2023-04-23T04:52:44.167Z,19.05
2023-04-23T04:53:44.202Z,18.26
2023-04-23T04:54:44.392Z,17.95
2023-04-23T04:55:44.227Z,18.03
2023-04-23T04:56:44.272Z,18.41
2023-04-23T04:57:44.290Z,18.22
2023-04-23T04:58:44.312Z,18.63
2023-04-23T04:59:44.487Z,19.31
2023-04-23T05:00:44.522Z,18.70
2023-04-23T05:01:44.377Z,18.81
2023-04-23T05:02:44.467Z,20.26
2023-04-23T05:03:44.629Z,21.74
2023-04-23T05:04:44.637Z,22.34
2023-04-23T05:05:44.496Z,22.65
2023-04-23T05:06:44.489Z,22.68
2023-04-23T05:07:44.514Z,22.80
2023-04-23T05:08:44.560Z,22.68
2023-04-23T05:09:45.356Z,21.93
2023-04-23T05:10:44.598Z,21.75
2023-04-23T05:11:44.693Z,20.34
2023-04-23T05:12:44.630Z,21.38
2023-04-23T05:13:44.685Z,24.84
2023-04-23T05:14:44.668Z,27.43
2023-04-23T05:15:44.676Z,29.52
2023-04-23T05:16:44.744Z,30.28
2023-04-23T05:17:44.732Z,27.75
2023-04-23T05:18:44.749Z,24.51
2023-04-23T05:19:44.771Z,21.86
2023-04-23T05:20:44.786Z,20.50
2023-04-23T05:21:44.811Z,19.96
2023-04-23T05:22:44.813Z,20.37
2023-04-23T05:23:44.862Z,20.99
2023-04-23T05:24:44.873Z,20.60
2023-04-23T05:25:44.879Z,20.83
2023-04-23T05:26:44.906Z,21.46
2023-04-23T05:27:44.938Z,21.11
2023-04-23T05:28:44.950Z,20.84
2023-04-23T05:29:44.966Z,21.81
2023-04-23T05:30:45.001Z,22.21
2023-04-23T05:31:45.053Z,20.79
2023-04-23T05:32:45.080Z,19.56
2023-04-23T05:33:49.892Z,18.30
2023-04-23T05:34:46.044Z,18.31
2023-04-23T05:35:45.026Z,18.40
2023-04-23T05:36:45.040Z,18.66
2023-04-23T05:37:45.019Z,19.23
2023-04-23T05:38:45.067Z,20.52
2023-04-23T05:39:45.014Z,21.31
2023-04-23T05:40:45.003Z,23.08
2023-04-23T05:41:44.997Z,26.28
2023-04-23T05:42:44.969Z,25.85
2023-04-23T05:43:44.983Z,24.48
2023-04-23T05:44:44.994Z,22.89
2023-04-23T05:45:44.989Z,21.21
2023-04-23T05:46:44.940Z,20.29
2023-04-23T05:47:44.943Z,19.86
2023-04-23T05:48:44.949Z,19.78
2023-04-23T05:49:44.937Z,20.26
2023-04-23T05:50:44.928Z,20.26
2023-04-23T05:51:46.565Z,20.59
2023-04-23T05:52:44.936Z,22.00
2023-04-23T05:53:44.974Z,23.90
2023-04-23T05:54:44.983Z,23.77
2023-04-23T05:55:45.097Z,25.68
2023-04-23T05:56:45.014Z,23.82
2023-04-23T05:57:45.063Z,22.37
2023-04-23T05:58:45.061Z,20.81
2023-04-23T05:59:45.085Z,20.40
2023-04-23T06:00:45.104Z,19.94
2023-04-23T06:01:45.121Z,19.37
2023-04-23T06:02:45.184Z,19.97
2023-04-23T06:03:45.472Z,20.70
2023-04-23T06:04:46.286Z,19.82
2023-04-23T06:05:45.300Z,20.06
2023-04-23T06:06:45.205Z,20.30
2023-04-23T06:07:45.230Z,20.51
2023-04-23T06:08:45.261Z,20.74
2023-04-23T06:09:45.267Z,19.96
2023-04-23T06:10:45.274Z,19.64
2023-04-23T06:11:45.307Z,19.45
2023-04-23T06:12:45.305Z,19.25
2023-04-23T06:13:45.319Z,18.35
2023-04-23T06:14:45.343Z,18.00
2023-04-23T06:15:45.391Z,18.00
2023-04-23T06:16:45.383Z,17.72
2023-04-23T06:17:45.520Z,17.57
2023-04-23T06:18:45.410Z,17.35
2023-04-23T06:19:45.427Z,17.38
2023-04-23T06:20:45.461Z,16.70
2023-04-23T06:21:45.471Z,16.38
2023-04-23T06:22:45.486Z,16.29
2023-04-23T06:23:45.528Z,16.29
2023-04-23T06:24:45.532Z,16.52
2023-04-23T06:25:45.548Z,16.26
2023-04-23T06:26:45.592Z,16.17
2023-04-23T06:27:45.596Z,16.03
2023-04-23T06:28:45.616Z,15.96
2023-04-23T06:29:45.643Z,15.77
2023-04-23T06:30:45.654Z,15.98
2023-04-23T06:31:45.703Z,16.90
2023-04-23T06:32:45.688Z,17.46
2023-04-23T06:33:45.713Z,17.21
2023-04-23T06:34:59.663Z,16.22
2023-04-23T06:35:46.687Z,16.23
2023-04-23T06:36:45.705Z,16.23
2023-04-23T06:37:45.663Z,15.45
2023-04-23T06:38:45.670Z,14.80
2023-04-23T06:39:45.760Z,14.99
2023-04-23T06:40:45.652Z,14.38
2023-04-23T06:41:45.660Z,14.80
2023-04-23T06:42:45.651Z,14.31
2023-04-23T06:43:45.651Z,14.57
2023-04-23T06:44:45.650Z,14.09
2023-04-23T06:45:45.625Z,14.05
2023-04-23T06:46:45.664Z,14.07
2023-04-23T06:47:45.632Z,13.78
2023-04-23T06:48:45.619Z,13.65
2023-04-23T06:49:45.613Z,13.56
2023-04-23T06:50:45.600Z,13.36
2023-04-23T06:51:45.574Z,13.43
2023-04-23T06:52:45.571Z,13.93
2023-04-23T06:53:45.583Z,14.31
2023-04-23T06:54:45.558Z,13.61
2023-04-23T06:55:45.561Z,13.49
2023-04-23T06:56:45.547Z,13.53
2023-04-23T06:57:45.751Z,13.47
2023-04-23T06:58:45.553Z,13.46
2023-04-23T06:59:45.537Z,13.60
2023-04-23T07:00:45.540Z,13.69
2023-04-23T07:01:45.526Z,13.76
2023-04-23T07:02:45.576Z,13.08
2023-04-23T07:03:45.581Z,13.20
2023-04-23T07:04:46.110Z,13.04
2023-04-23T07:05:45.555Z,12.69
2023-04-23T07:06:45.586Z,13.08
2023-04-23T07:07:45.607Z,13.32
2023-04-23T07:08:45.617Z,12.47
2023-04-23T07:09:45.636Z,11.98
2023-04-23T07:10:45.630Z,12.32
2023-04-23T07:11:45.653Z,11.98
2023-04-23T07:12:45.666Z,11.93
2023-04-23T07:13:45.677Z,11.83
2023-04-23T07:14:45.669Z,11.60
2023-04-23T07:15:45.688Z,11.45
2023-04-23T07:16:45.694Z,11.58
2023-04-23T07:17:45.723Z,11.50
2023-04-23T07:18:45.695Z,12.05
2023-04-23T07:19:45.716Z,12.20
2023-04-23T07:20:45.747Z,12.17
2023-04-23T07:21:45.728Z,12.40
2023-04-23T07:22:45.746Z,12.92
2023-04-23T07:23:45.756Z,12.03
2023-04-23T07:24:45.926Z,11.83
2023-04-23T07:25:45.756Z,11.33
2023-04-23T07:26:45.774Z,10.50
2023-04-23T07:27:45.783Z,10.16
2023-04-23T07:28:45.795Z,10.05
2023-04-23T07:29:45.777Z,9.53
2023-04-23T07:30:45.782Z,9.70
2023-04-23T07:31:45.814Z,9.68
2023-04-23T07:32:45.853Z,9.04
2023-04-23T07:33:45.846Z,9.16
2023-04-23T07:34:45.792Z,8.90
2023-04-23T07:35:45.801Z,8.89
2023-04-23T07:36:45.773Z,8.61
2023-04-23T07:37:45.792Z,8.93
2023-04-23T07:38:45.775Z,8.51
2023-04-23T07:39:45.989Z,8.27
2023-04-23T07:40:45.771Z,8.28
2023-04-23T07:41:45.792Z,7.77
2023-04-23T07:42:45.827Z,7.93
2023-04-23T07:43:45.861Z,7.91
2023-04-23T07:44:45.859Z,7.72
2023-04-23T07:45:45.913Z,8.05
2023-04-23T07:46:45.909Z,7.77
2023-04-23T07:47:45.959Z,7.71
2023-04-23T07:48:46.001Z,8.33
2023-04-23T07:49:46.042Z,8.42
2023-04-23T07:50:46.085Z,8.15
2023-04-23T07:51:46.117Z,8.28
2023-04-23T07:52:46.183Z,7.62
2023-04-23T07:53:46.252Z,8.06
2023-04-23T07:54:46.288Z,9.07
2023-04-23T07:55:46.363Z,8.90
2023-04-23T07:56:46.417Z,8.53
2023-04-23T07:57:46.486Z,8.19
2023-04-23T07:58:46.558Z,8.32
2023-04-23T07:59:46.613Z,9.08
2023-04-23T08:00:46.659Z,8.44
2023-04-23T08:01:46.732Z,8.35
2023-04-23T08:02:46.948Z,8.50
2023-04-23T08:03:47.109Z,8.31
2023-04-23T08:04:47.078Z,9.02
2023-04-23T08:05:47.080Z,9.40
2023-04-23T08:06:47.028Z,9.89
2023-04-23T08:07:47.075Z,9.78
2023-04-23T08:08:47.145Z,9.50
2023-04-23T08:09:47.604Z,9.65
2023-04-23T08:10:47.272Z,10.07
2023-04-23T08:11:47.322Z,11.06
2023-04-23T08:12:47.364Z,12.46
2023-04-23T08:13:47.444Z,14.04
2023-04-23T08:14:47.477Z,15.16
2023-04-23T08:15:47.610Z,15.61
2023-04-23T08:16:47.593Z,15.94
2023-04-23T08:17:47.734Z,16.82
2023-04-23T08:18:58.115Z,16.48
2023-04-23T08:19:48.703Z,15.58
2023-04-23T08:20:47.704Z,15.31
2023-04-23T08:21:47.704Z,16.27
2023-04-23T08:22:47.684Z,16.10
2023-04-23T08:23:47.678Z,16.27
2023-04-23T08:24:47.684Z,16.03
2023-04-23T08:25:47.664Z,15.38
2023-04-23T08:26:47.668Z,15.43
2023-04-23T08:27:47.670Z,15.87
2023-04-23T08:28:47.655Z,14.58
2023-04-23T08:29:47.629Z,14.90
2023-04-23T08:30:47.688Z,14.73
2023-04-23T08:31:47.806Z,14.30
2023-04-23T08:32:47.839Z,14.73
2023-04-23T08:33:47.859Z,14.66
2023-04-23T08:34:47.886Z,15.21
2023-04-23T08:35:47.936Z,15.47
2023-04-23T08:36:48.003Z,15.12
2023-04-23T08:37:48.044Z,14.65
2023-04-23T08:38:48.073Z,14.92
2023-04-23T08:39:48.095Z,14.99
2023-04-23T08:40:48.152Z,14.91
2023-04-23T08:41:48.187Z,14.37
2023-04-23T08:42:48.243Z,14.52
2023-04-23T08:43:48.370Z,14.19
2023-04-23T08:44:48.334Z,14.48
2023-04-23T08:45:48.402Z,14.37
2023-04-23T08:46:48.513Z,14.21
2023-04-23T08:47:48.549Z,14.09
2023-04-23T08:48:48.550Z,13.82
2023-04-23T08:49:48.600Z,14.04
2023-04-23T08:50:48.674Z,13.86
2023-04-23T08:51:48.683Z,12.54
2023-04-23T08:52:48.731Z,13.64
2023-04-23T08:53:48.765Z,12.97
2023-04-23T08:54:48.836Z,13.34
2023-04-23T08:55:48.885Z,13.47
2023-04-23T08:56:48.929Z,12.87
2023-04-23T08:57:49.161Z,12.16
2023-04-23T08:58:49.038Z,12.84
2023-04-23T08:59:49.054Z,12.15
2023-04-23T09:00:49.171Z,12.80
2023-04-23T09:01:49.178Z,12.94
2023-04-23T09:02:49.577Z,12.54
2023-04-23T09:03:49.370Z,12.33
2023-04-23T09:04:51.340Z,12.61
2023-04-23T09:05:49.289Z,12.75
2023-04-23T09:06:49.285Z,12.01
2023-04-23T09:07:49.297Z,12.58
2023-04-23T09:08:49.284Z,12.99
2023-04-23T09:09:49.268Z,12.40
2023-04-23T09:10:49.254Z,10.69
2023-04-23T09:11:49.253Z,11.45
2023-04-23T09:12:49.256Z,11.08
2023-04-23T09:13:49.239Z,11.15
2023-04-23T09:14:49.257Z,11.01
2023-04-23T09:15:49.236Z,11.51
2023-04-23T09:16:49.266Z,11.26
2023-04-23T09:17:49.241Z,10.57
2023-04-23T09:18:49.237Z,11.23
2023-04-23T09:19:49.224Z,11.61
2023-04-23T09:20:49.207Z,11.24
2023-04-23T09:21:49.200Z,10.75
2023-04-23T09:22:49.209Z,10.84
2023-04-23T09:23:49.188Z,9.97
2023-04-23T09:24:49.170Z,9.89
2023-04-23T09:25:49.171Z,9.75
2023-04-23T09:26:49.172Z,9.90
2023-04-23T09:27:49.156Z,10.08
2023-04-23T09:28:50.155Z,10.36
2023-04-23T09:29:49.134Z,10.45
2023-04-23T09:30:49.125Z,10.29
2023-04-23T09:31:49.138Z,10.15
2023-04-23T09:32:49.134Z,9.88
2023-04-23T09:33:49.117Z,9.45
2023-04-23T09:34:49.107Z,9.74
2023-04-23T09:35:49.089Z,9.57
2023-04-23T09:36:49.108Z,8.24
2023-04-23T09:37:49.534Z,8.05
2023-04-23T09:38:49.080Z,8.94
2023-04-23T09:39:49.069Z,9.31
2023-04-23T09:40:49.068Z,9.26
2023-04-23T09:41:49.072Z,9.06
2023-04-23T09:42:49.057Z,8.79
2023-04-23T09:43:49.048Z,7.41
2023-04-23T09:44:49.040Z,7.46
2023-04-23T09:45:49.091Z,7.94
2023-04-23T09:46:49.037Z,8.26
2023-04-23T09:47:49.077Z,7.59
2023-04-23T09:48:49.011Z,7.30
2023-04-23T09:49:48.992Z,7.45
2023-04-23T09:50:48.989Z,8.28
2023-04-23T09:51:48.987Z,8.19
2023-04-23T09:52:48.975Z,7.47
2023-04-23T09:53:49.034Z,7.51
2023-04-23T09:54:49.076Z,8.06
2023-04-23T09:55:49.164Z,7.51
2023-04-23T09:56:49.149Z,7.44
2023-04-23T09:57:49.202Z,7.63
2023-04-23T09:58:49.232Z,7.40
2023-04-23T09:59:54.849Z,7.62
2023-04-23T10:00:50.272Z,7.61
2023-04-23T10:01:49.365Z,7.44
2023-04-23T10:02:49.504Z,7.63
2023-04-23T10:03:49.484Z,7.54
2023-04-23T10:04:49.445Z,7.27
2023-04-23T10:06:00.982Z,6.98
2023-04-23T10:07:02.346Z,6.81
2023-04-23T10:07:50.219Z,6.81
2023-04-23T10:08:49.230Z,6.99
2023-04-23T10:09:49.241Z,7.04
2023-04-23T10:11:49.214Z,5.78
2023-04-23T10:12:54.432Z,6.28
2023-04-23T10:13:50.193Z,6.25
2023-04-23T10:14:49.264Z,6.40
2023-04-23T10:15:49.181Z,5.46
2023-04-23T10:16:49.492Z,4.59
2023-04-23T10:17:49.160Z,5.14
2023-04-23T10:18:49.155Z,5.26
2023-04-23T10:19:49.130Z,5.63
2023-04-23T10:20:49.127Z,5.88
2023-04-23T10:21:56.182Z,6.33
2023-04-23T10:22:50.137Z,6.34
2023-04-23T10:23:49.100Z,6.35
2023-04-23T10:24:49.628Z,6.02
2023-04-23T10:25:49.103Z,4.73
2023-04-23T10:26:49.095Z,5.22
2023-04-23T10:27:53.151Z,5.63
2023-04-23T10:28:50.082Z,4.49
2023-04-23T10:29:49.074Z,3.88
2023-04-23T10:30:49.068Z,4.29
2023-04-23T10:31:49.043Z,4.98
2023-04-23T10:32:49.176Z,4.94
2023-04-23T10:33:58.457Z,5.05
2023-04-23T10:34:50.024Z,4.88
2023-04-23T10:35:49.014Z,4.52
2023-04-23T10:36:49.024Z,4.20
2023-04-23T10:37:49.040Z,4.96
2023-04-23T10:38:57.898Z,5.22
2023-04-23T10:39:50.168Z,4.98
2023-04-23T10:40:48.990Z,5.06
2023-04-23T10:41:48.991Z,4.13
2023-04-23T10:42:48.966Z,4.47
2023-04-23T10:43:48.996Z,4.94
2023-04-23T10:44:57.868Z,4.57
2023-04-23T10:45:49.953Z,4.58
2023-04-23T10:46:48.961Z,4.06
2023-04-23T10:47:49.143Z,4.05
2023-04-23T10:48:48.933Z,4.48
2023-04-23T10:49:48.936Z,4.30
2023-04-23T10:51:06.952Z,3.80
2023-04-23T10:52:48.911Z,3.61
2023-04-23T10:53:48.903Z,3.84
2023-04-23T10:54:48.881Z,3.93
2023-04-23T10:55:48.874Z,2.69
2023-04-23T10:56:48.892Z,2.94
2023-04-23T10:57:48.885Z,2.88
2023-04-23T10:58:48.875Z,2.21
2023-04-23T10:59:48.861Z,2.98
2023-04-23T11:00:48.856Z,3.14
2023-04-23T11:01:48.893Z,2.31
2023-04-23T11:02:48.992Z,1.99
2023-04-23T11:03:49.009Z,2.35
2023-04-23T11:04:48.944Z,2.58
2023-04-23T11:05:48.817Z,2.32
2023-04-23T11:06:48.807Z,2.03
2023-04-23T11:07:48.829Z,2.01
2023-04-23T11:08:49.531Z,1.54
2023-04-23T11:09:48.788Z,1.86
2023-04-23T11:10:48.788Z,1.61
2023-04-23T11:11:48.772Z,1.78
2023-04-23T11:12:48.759Z,1.23
2023-04-23T11:13:48.748Z,0.96
2023-04-23T11:14:48.758Z,1.07
2023-04-23T11:15:48.744Z,1.45
2023-04-23T11:17:48.937Z,1.20
2023-04-23T11:18:48.869Z,1.10
2023-04-23T11:19:48.922Z,1.16
2023-04-23T11:20:48.970Z,1.03
2023-04-23T11:21:49.011Z,0.97
2023-04-23T11:22:49.057Z,1.08
2023-04-23T11:23:49.114Z,0.90
2023-04-23T11:24:50.982Z,0.92
2023-04-23T11:25:49.179Z,0.81
2023-04-23T11:26:49.207Z,0.76
2023-04-23T11:27:49.264Z,0.74
2023-04-23T11:28:49.298Z,0.69
2023-04-23T11:29:49.327Z,0.76
2023-04-23T11:30:49.381Z,0.67
2023-04-23T11:32:01.390Z,0.65
2023-04-23T11:32:50.560Z,0.65
2023-04-23T11:33:49.423Z,0.67
2023-04-23T11:34:49.411Z,0.66
2023-04-23T11:35:49.380Z,0.76
2023-04-23T11:36:49.393Z,0.93
2023-04-23T11:37:49.426Z,0.83
2023-04-23T11:38:49.366Z,0.79
2023-04-23T11:39:49.387Z,0.95
2023-04-23T11:40:49.346Z,0.79
2023-04-23T11:41:49.368Z,0.61
2023-04-23T11:42:49.350Z,0.62
2023-04-23T11:43:49.323Z,0.58
2023-04-23T11:44:49.368Z,0.62
2023-04-23T11:45:49.445Z,0.61
2023-04-23T11:46:49.617Z,0.70
2023-04-23T11:47:49.554Z,0.73
2023-04-23T11:48:49.597Z,0.62
2023-04-23T11:49:49.590Z,0.57
2023-04-23T11:50:49.633Z,0.56
2023-04-23T11:51:49.695Z,0.50
2023-04-23T11:52:49.744Z,0.51
2023-04-23T11:53:49.798Z,0.56
2023-04-23T11:54:49.854Z,0.52
2023-04-23T11:55:49.884Z,0.55
2023-04-23T11:56:49.951Z,0.52
2023-04-23T11:57:50.005Z,0.50
2023-04-23T11:58:50.046Z,0.52
2023-04-23T11:59:50.083Z,0.58
2023-04-23T12:00:50.131Z,0.61
2023-04-23T12:01:50.174Z,0.57
2023-04-23T12:02:50.307Z,0.57
2023-04-23T12:03:50.426Z,0.54
2023-04-23T12:04:50.361Z,0.54
2023-04-23T12:05:50.357Z,0.55
2023-04-23T12:06:50.412Z,0.50
2023-04-23T12:07:50.453Z,0.50
2023-04-23T12:08:50.521Z,0.50
2023-04-23T12:09:50.574Z,0.53
2023-04-23T12:10:50.638Z,0.57
2023-04-23T12:11:50.656Z,0.53
2023-04-23T12:12:50.734Z,0.50
2023-04-23T12:13:50.773Z,0.50
2023-04-23T12:14:50.844Z,0.56
2023-04-23T12:15:50.923Z,0.56
2023-04-23T12:16:50.941Z,0.56
2023-04-23T12:17:51.012Z,0.58
2023-04-23T12:18:51.017Z,0.59
2023-04-23T12:19:51.077Z,0.49
2023-04-23T12:20:51.141Z,0.50
2023-04-23T12:21:51.171Z,0.65
2023-04-23T12:22:51.225Z,0.58
2023-04-23T12:23:51.254Z,0.61
2023-04-23T12:24:51.352Z,0.68
2023-04-23T12:25:51.354Z,0.66
2023-04-23T12:26:51.464Z,0.62
2023-04-23T12:27:51.512Z,0.60
2023-04-23T12:28:51.512Z,0.65
2023-04-23T12:29:51.626Z,0.64
2023-04-23T12:30:51.603Z,0.59
2023-04-23T12:31:51.697Z,0.59
2023-04-23T12:32:51.798Z,0.61
2023-04-23T12:33:51.737Z,0.68
2023-04-23T12:34:51.799Z,0.56
2023-04-23T12:35:51.852Z,0.62
2023-04-23T12:36:51.906Z,0.58
2023-04-23T12:37:51.946Z,0.62
2023-04-23T12:38:52.006Z,0.59
2023-04-23T12:39:52.051Z,0.63
2023-04-23T12:40:52.077Z,0.58
2023-04-23T12:41:52.125Z,0.54
2023-04-23T12:42:52.177Z,0.57
2023-04-23T12:43:52.253Z,0.60
2023-04-23T12:44:52.322Z,0.60
2023-04-23T12:45:52.336Z,0.50
2023-04-23T12:46:53.215Z,0.60
2023-04-23T12:47:52.469Z,0.68
2023-04-23T12:48:52.498Z,0.68
2023-04-23T12:49:52.542Z,0.71
2023-04-23T12:50:52.619Z,0.66
2023-04-23T12:51:52.723Z,0.59
2023-04-23T12:52:52.687Z,0.67
2023-04-23T12:53:52.738Z,0.68
2023-04-23T12:54:52.841Z,0.66
2023-04-23T12:55:52.859Z,0.63
2023-04-23T12:56:52.900Z,0.62
2023-04-23T12:57:53.915Z,0.71
2023-04-23T12:58:53.005Z,0.57
2023-04-23T12:59:53.071Z,0.58
2023-04-23T13:00:53.176Z,0.62
2023-04-23T13:01:53.207Z,0.60
2023-04-23T13:02:53.289Z,0.61
2023-04-23T13:03:53.372Z,0.67
2023-04-23T13:04:53.303Z,0.68